sensor_id;sensor_type;location;lat;lon;timestamp;P1;durP1;ratioP1;P2;durP2;ratioP2
25327;SDS011;13279;51.300;12.394;2022-08-01T03:17:44;6.73;;;3.77;;
25327;SDS011;13279;51.300;12.394;2022-08-01T03:20:14;3.97;;;3.40;;
25327;SDS011;13279;51.300;12.394;2022-08-01T03:22:43;3.63;;;3.43;;
25327;SDS011;13279;51.300;12.394;2022-08-01T03:25:13;3.53;;;3.23;;
25327;SDS011;13279;51.300;12.394;2022-08-01T03:27:42;5.73;;;3.23;;
25327;SDS011;13279;51.300;12.394;2022-08-01T03:30:12;6.10;;;3.50;;
25327;SDS011;13279;51.300;12.394;2022-08-01T03:32:40;5.27;;;3.47;;
25327;SDS011;13279;51.300;12.394;2022-08-01T03:35:10;3.47;;;3.07;;
25327;SDS011;13279;51.300;12.394;2022-08-01T03:37:38;3.03;;;2.83;;
25327;SDS011;13279;51.300;12.394;2022-08-01T03:40:11;3.43;;;3.13;;
25327;SDS011;13279;51.300;12.394;2022-08-01T03:42:44;2.90;;;2.70;;
25327;SDS011;13279;51.300;12.394;2022-08-01T03:45:15;3.00;;;2.57;;
25327;SDS011;13279;51.300;12.394;2022-08-01T03:47:49;2.50;;;2.40;;
25327;SDS011;13279;51.300;12.394;2022-08-01T03:50:23;3.20;;;2.70;;
25327;SDS011;13279;51.300;12.394;2022-08-01T03:52:52;3.13;;;2.80;;
25327;SDS011;13279;51.300;12.394;2022-08-01T03:55:22;3.83;;;2.67;;
25327;SDS011;13279;51.300;12.394;2022-08-01T03:57:50;3.50;;;3.17;;
25327;SDS011;13279;51.300;12.394;2022-08-01T04:00:18;2.80;;;2.60;;
25327;SDS011;13279;51.300;12.394;2022-08-01T04:02:47;3.10;;;2.90;;
25327;SDS011;13279;51.300;12.394;2022-08-01T04:05:14;3.33;;;2.90;;
25327;SDS011;13279;51.300;12.394;2022-08-01T04:07:46;3.00;;;2.40;;
25327;SDS011;13279;51.300;12.394;2022-08-01T04:10:20;2.83;;;2.57;;
25327;SDS011;13279;51.300;12.394;2022-08-01T04:12:48;4.30;;;2.67;;
25327;SDS011;13279;51.300;12.394;2022-08-01T04:15:15;5.27;;;3.00;;
25327;SDS011;13279;51.300;12.394;2022-08-01T04:17:43;3.13;;;2.93;;
25327;SDS011;13279;51.300;12.394;2022-08-01T04:20:11;3.30;;;3.00;;
25327;SDS011;13279;51.300;12.394;2022-08-01T04:22:39;3.23;;;2.83;;
25327;SDS011;13279;51.300;12.394;2022-08-01T04:25:09;6.13;;;3.27;;
25327;SDS011;13279;51.300;12.394;2022-08-01T04:27:42;4.13;;;3.30;;
25327;SDS011;13279;51.300;12.394;2022-08-01T04:30:13;4.37;;;3.23;;
25327;SDS011;13279;51.300;12.394;2022-08-01T04:32:41;2.97;;;2.67;;
25327;SDS011;13279;51.300;12.394;2022-08-01T04:35:12;3.20;;;3.00;;
25327;SDS011;13279;51.300;12.394;2022-08-01T04:37:43;3.10;;;2.90;;
25327;SDS011;13279;51.300;12.394;2022-08-01T04:40:15;3.50;;;3.20;;
25327;SDS011;13279;51.300;12.394;2022-08-01T04:42:43;2.93;;;2.73;;
25327;SDS011;13279;51.300;12.394;2022-08-01T04:45:14;3.07;;;2.87;;
25327;SDS011;13279;51.300;12.394;2022-08-01T04:47:42;3.77;;;3.43;;
25327;SDS011;13279;51.300;12.394;2022-08-01T04:50:11;5.63;;;3.13;;
25327;SDS011;13279;51.300;12.394;2022-08-01T04:52:38;3.17;;;2.90;;
25327;SDS011;13279;51.300;12.394;2022-08-01T04:55:07;3.47;;;3.10;;
25327;SDS011;13279;51.300;12.394;2022-08-01T04:57:37;6.17;;;2.93;;
25327;SDS011;13279;51.300;12.394;2022-08-01T05:00:08;3.60;;;3.30;;
25327;SDS011;13279;51.300;12.394;2022-08-01T05:02:36;3.33;;;2.83;;
25327;SDS011;13279;51.300;12.394;2022-08-01T05:05:04;3.63;;;3.17;;
25327;SDS011;13279;51.300;12.394;2022-08-01T05:07:32;7.50;;;3.30;;
25327;SDS011;13279;51.300;12.394;2022-08-01T05:10:02;4.33;;;3.63;;
25327;SDS011;13279;51.300;12.394;2022-08-01T05:12:30;3.17;;;2.97;;
25327;SDS011;13279;51.300;12.394;2022-08-01T05:14:59;3.43;;;3.13;;
25327;SDS011;13279;51.300;12.394;2022-08-01T05:17:27;5.30;;;3.50;;
25327;SDS011;13279;51.300;12.394;2022-08-01T05:19:54;3.20;;;2.90;;
25327;SDS011;13279;51.300;12.394;2022-08-01T05:22:22;3.07;;;2.70;;
25327;SDS011;13279;51.300;12.394;2022-08-01T05:24:51;3.13;;;2.93;;
25327;SDS011;13279;51.300;12.394;2022-08-01T05:27:19;4.97;;;2.90;;
25327;SDS011;13279;51.300;12.394;2022-08-01T05:29:46;5.07;;;3.30;;
25327;SDS011;13279;51.300;12.394;2022-08-01T05:32:15;3.23;;;3.03;;
25327;SDS011;13279;51.300;12.394;2022-08-01T05:34:42;5.17;;;3.10;;
25327;SDS011;13279;51.300;12.394;2022-08-01T05:37:10;3.40;;;3.10;;
25327;SDS011;13279;51.300;12.394;2022-08-01T05:39:38;4.07;;;3.33;;
25327;SDS011;13279;51.300;12.394;2022-08-01T05:42:05;4.47;;;3.77;;
25327;SDS011;13279;51.300;12.394;2022-08-01T05:44:32;5.00;;;3.60;;
25327;SDS011;13279;51.300;12.394;2022-08-01T05:47:00;3.60;;;3.20;;
25327;SDS011;13279;51.300;12.394;2022-08-01T05:49:29;4.53;;;4.03;;
25327;SDS011;13279;51.300;12.394;2022-08-01T05:51:57;5.37;;;3.63;;
25327;SDS011;13279;51.300;12.394;2022-08-01T05:54:26;8.77;;;4.30;;
25327;SDS011;13279;51.300;12.394;2022-08-01T05:56:53;4.87;;;4.17;;
25327;SDS011;13279;51.300;12.394;2022-08-01T05:59:25;4.73;;;4.30;;
25327;SDS011;13279;51.300;12.394;2022-08-01T06:01:52;6.50;;;3.47;;
25327;SDS011;13279;51.300;12.394;2022-08-01T06:04:19;4.13;;;3.70;;
25327;SDS011;13279;51.300;12.394;2022-08-01T06:06:48;12.20;;;4.07;;
25327;SDS011;13279;51.300;12.394;2022-08-01T06:09:15;5.10;;;3.20;;
25327;SDS011;13279;51.300;12.394;2022-08-01T06:11:43;3.43;;;3.13;;
25327;SDS011;13279;51.300;12.394;2022-08-01T06:14:10;2.90;;;2.70;;
25327;SDS011;13279;51.300;12.394;2022-08-01T06:16:38;3.63;;;2.90;;
25327;SDS011;13279;51.300;12.394;2022-08-01T06:19:05;3.67;;;3.23;;
25327;SDS011;13279;51.300;12.394;2022-08-01T06:21:33;3.20;;;2.90;;
25327;SDS011;13279;51.300;12.394;2022-08-01T06:24:02;2.87;;;2.67;;
25327;SDS011;13279;51.300;12.394;2022-08-01T06:26:30;2.77;;;2.57;;
25327;SDS011;13279;51.300;12.394;2022-08-01T06:28:57;3.20;;;2.90;;
25327;SDS011;13279;51.300;12.394;2022-08-01T06:31:25;3.30;;;3.07;;
25327;SDS011;13279;51.300;12.394;2022-08-01T06:33:52;4.23;;;3.17;;
25327;SDS011;13279;51.300;12.394;2022-08-01T06:36:21;3.23;;;3.03;;
25327;SDS011;13279;51.300;12.394;2022-08-01T06:38:48;4.10;;;3.27;;
25327;SDS011;13279;51.300;12.394;2022-08-01T06:41:17;3.43;;;2.80;;
25327;SDS011;13279;51.300;12.394;2022-08-01T06:43:44;4.83;;;2.43;;
25327;SDS011;13279;51.300;12.394;2022-08-01T06:46:12;5.03;;;2.93;;
25327;SDS011;13279;51.300;12.394;2022-08-01T06:48:39;2.60;;;2.50;;
25327;SDS011;13279;51.300;12.394;2022-08-01T06:51:08;5.13;;;2.80;;
25327;SDS011;13279;51.300;12.394;2022-08-01T06:53:39;2.40;;;2.30;;
25327;SDS011;13279;51.300;12.394;2022-08-01T06:56:06;2.20;;;2.00;;
25327;SDS011;13279;51.300;12.394;2022-08-01T06:58:36;2.00;;;1.90;;
25327;SDS011;13279;51.300;12.394;2022-08-01T07:01:04;2.83;;;2.40;;
25327;SDS011;13279;51.300;12.394;2022-08-01T07:03:32;2.57;;;1.60;;
25327;SDS011;13279;51.300;12.394;2022-08-01T07:06:00;3.10;;;1.70;;
25327;SDS011;13279;51.300;12.394;2022-08-01T07:08:28;1.67;;;1.57;;
25327;SDS011;13279;51.300;12.394;2022-08-01T07:10:55;4.27;;;1.60;;
25327;SDS011;13279;51.300;12.394;2022-08-01T07:13:25;1.37;;;1.30;;
25327;SDS011;13279;51.300;12.394;2022-08-01T07:15:54;2.97;;;2.03;;
25327;SDS011;13279;51.300;12.394;2022-08-01T07:18:21;1.70;;;1.60;;
25327;SDS011;13279;51.300;12.394;2022-08-01T07:20:48;2.50;;;2.40;;
25327;SDS011;13279;51.300;12.394;2022-08-01T07:23:16;6.53;;;2.57;;
25327;SDS011;13279;51.300;12.394;2022-08-01T07:25:44;3.33;;;2.10;;
25327;SDS011;13279;51.300;12.394;2022-08-01T07:28:13;5.60;;;1.77;;
25327;SDS011;13279;51.300;12.394;2022-08-01T07:30:40;3.47;;;2.07;;
25327;SDS011;13279;51.300;12.394;2022-08-01T07:33:11;1.93;;;1.67;;
25327;SDS011;13279;51.300;12.394;2022-08-01T07:35:39;1.90;;;1.80;;
25327;SDS011;13279;51.300;12.394;2022-08-01T07:38:06;2.20;;;1.70;;
25327;SDS011;13279;51.300;12.394;2022-08-01T07:40:34;2.07;;;1.73;;
25327;SDS011;13279;51.300;12.394;2022-08-01T07:43:01;1.87;;;1.60;;
25327;SDS011;13279;51.300;12.394;2022-08-01T07:45:29;4.93;;;1.83;;
25327;SDS011;13279;51.300;12.394;2022-08-01T07:48:01;3.53;;;1.10;;
25327;SDS011;13279;51.300;12.394;2022-08-01T07:50:30;1.80;;;1.70;;
25327;SDS011;13279;51.300;12.394;2022-08-01T07:52:58;1.10;;;1.10;;
25327;SDS011;13279;51.300;12.394;2022-08-01T07:55:26;1.50;;;1.50;;
25327;SDS011;13279;51.300;12.394;2022-08-01T07:57:53;2.30;;;1.70;;
25327;SDS011;13279;51.300;12.394;2022-08-01T08:00:21;4.30;;;1.30;;
25327;SDS011;13279;51.300;12.394;2022-08-01T08:02:48;15.13;;;2.27;;
25327;SDS011;13279;51.300;12.394;2022-08-01T08:05:16;3.87;;;1.80;;
25327;SDS011;13279;51.300;12.394;2022-08-01T08:07:46;3.50;;;1.30;;
25327;SDS011;13279;51.300;12.394;2022-08-01T08:10:13;2.87;;;1.50;;
25327;SDS011;13279;51.300;12.394;2022-08-01T08:12:41;3.07;;;1.40;;
25327;SDS011;13279;51.300;12.394;2022-08-01T08:15:08;1.90;;;1.00;;
25327;SDS011;13279;51.300;12.394;2022-08-01T08:17:36;1.57;;;1.10;;
25327;SDS011;13279;51.300;12.394;2022-08-01T08:20:04;3.30;;;1.40;;
25327;SDS011;13279;51.300;12.394;2022-08-01T08:22:33;1.00;;;0.90;;
25327;SDS011;13279;51.300;12.394;2022-08-01T08:25:02;1.50;;;1.40;;
25327;SDS011;13279;51.300;12.394;2022-08-01T08:27:30;1.40;;;1.30;;
25327;SDS011;13279;51.300;12.394;2022-08-01T08:29:57;1.10;;;1.00;;
25327;SDS011;13279;51.300;12.394;2022-08-01T08:32:25;1.50;;;1.40;;
25327;SDS011;13279;51.300;12.394;2022-08-01T08:34:53;6.00;;;1.47;;
25327;SDS011;13279;51.300;12.394;2022-08-01T08:37:20;1.30;;;1.20;;
25327;SDS011;13279;51.300;12.394;2022-08-01T08:39:48;1.07;;;1.07;;
25327;SDS011;13279;51.300;12.394;2022-08-01T08:42:17;1.47;;;0.90;;
25327;SDS011;13279;51.300;12.394;2022-08-01T08:44:45;2.00;;;1.20;;
25327;SDS011;13279;51.300;12.394;2022-08-01T08:47:13;1.53;;;1.10;;
25327;SDS011;13279;51.300;12.394;2022-08-01T08:49:41;1.53;;;1.40;;
25327;SDS011;13279;51.300;12.394;2022-08-01T08:52:10;2.10;;;1.30;;
25327;SDS011;13279;51.300;12.394;2022-08-01T08:54:39;1.00;;;0.90;;
25327;SDS011;13279;51.300;12.394;2022-08-01T08:57:08;1.03;;;0.97;;
25327;SDS011;13279;51.300;12.394;2022-08-01T08:59:38;1.17;;;1.17;;
25327;SDS011;13279;51.300;12.394;2022-08-01T09:02:06;1.03;;;1.03;;
25327;SDS011;13279;51.300;12.394;2022-08-01T09:04:35;3.13;;;1.40;;
25327;SDS011;13279;51.300;12.394;2022-08-01T09:07:04;1.10;;;1.00;;
25327;SDS011;13279;51.300;12.394;2022-08-01T09:09:33;1.00;;;1.00;;
25327;SDS011;13279;51.300;12.394;2022-08-01T09:12:02;1.17;;;1.10;;
25327;SDS011;13279;51.300;12.394;2022-08-01T09:14:30;0.83;;;0.83;;
25327;SDS011;13279;51.300;12.394;2022-08-01T09:17:00;1.60;;;1.10;;
25327;SDS011;13279;51.300;12.394;2022-08-01T09:19:34;1.00;;;1.00;;
25327;SDS011;13279;51.300;12.394;2022-08-01T09:22:03;1.77;;;0.90;;
25327;SDS011;13279;51.300;12.394;2022-08-01T09:24:33;1.10;;;1.00;;
25327;SDS011;13279;51.300;12.394;2022-08-01T09:27:15;0.70;;;0.70;;
25327;SDS011;13279;51.300;12.394;2022-08-01T09:29:44;1.37;;;0.97;;
25327;SDS011;13279;51.300;12.394;2022-08-01T09:34:49;0.53;;;0.53;;
25327;SDS011;13279;51.300;12.394;2022-08-01T09:37:16;0.57;;;0.57;;
25327;SDS011;13279;51.300;12.394;2022-08-01T09:39:56;0.50;;;0.40;;
25327;SDS011;13279;51.300;12.394;2022-08-01T09:42:25;0.40;;;0.40;;
25327;SDS011;13279;51.300;12.394;2022-08-01T09:44:53;0.40;;;0.40;;
25327;SDS011;13279;51.300;12.394;2022-08-01T09:47:21;0.60;;;0.60;;
25327;SDS011;13279;51.300;12.394;2022-08-01T09:49:54;1.93;;;0.40;;
25327;SDS011;13279;51.300;12.394;2022-08-01T09:52:23;0.40;;;0.40;;
25327;SDS011;13279;51.300;12.394;2022-08-01T09:54:51;0.73;;;0.50;;
25327;SDS011;13279;51.300;12.394;2022-08-01T09:57:21;0.60;;;0.60;;
25327;SDS011;13279;51.300;12.394;2022-08-01T09:59:49;0.60;;;0.60;;
25327;SDS011;13279;51.300;12.394;2022-08-01T10:02:28;3.43;;;0.50;;
25327;SDS011;13279;51.300;12.394;2022-08-01T10:04:58;0.63;;;0.40;;
25327;SDS011;13279;51.300;12.394;2022-08-01T10:07:26;0.40;;;0.40;;
25327;SDS011;13279;51.300;12.394;2022-08-01T10:09:54;4.83;;;0.40;;
25327;SDS011;13279;51.300;12.394;2022-08-01T10:12:22;0.47;;;0.47;;
25327;SDS011;13279;51.300;12.394;2022-08-01T10:14:50;1.57;;;0.70;;
25327;SDS011;13279;51.300;12.394;2022-08-01T10:17:20;0.57;;;0.47;;
25327;SDS011;13279;51.300;12.394;2022-08-01T10:19:51;0.40;;;0.40;;
25327;SDS011;13279;51.300;12.394;2022-08-01T10:22:44;2.67;;;0.50;;
25327;SDS011;13279;51.300;12.394;2022-08-01T10:25:12;0.30;;;0.30;;
25327;SDS011;13279;51.300;12.394;2022-08-01T10:27:43;0.20;;;0.20;;
25327;SDS011;13279;51.300;12.394;2022-08-01T10:30:16;0.30;;;0.30;;
25327;SDS011;13279;51.300;12.394;2022-08-01T10:32:44;0.50;;;0.50;;
25327;SDS011;13279;51.300;12.394;2022-08-01T10:35:13;0.30;;;0.30;;
25327;SDS011;13279;51.300;12.394;2022-08-01T10:37:44;1.87;;;0.50;;
25327;SDS011;13279;51.300;12.394;2022-08-01T10:40:12;0.77;;;0.63;;
25327;SDS011;13279;51.300;12.394;2022-08-01T10:42:41;0.70;;;0.70;;
25327;SDS011;13279;51.300;12.394;2022-08-01T10:45:11;0.50;;;0.50;;
25327;SDS011;13279;51.300;12.394;2022-08-01T10:47:42;0.50;;;0.50;;
25327;SDS011;13279;51.300;12.394;2022-08-01T10:50:14;0.70;;;0.70;;
25327;SDS011;13279;51.300;12.394;2022-08-01T10:53:09;0.40;;;0.40;;
25327;SDS011;13279;51.300;12.394;2022-08-01T10:55:48;1.37;;;0.53;;
25327;SDS011;13279;51.300;12.394;2022-08-01T10:58:21;0.93;;;0.83;;
25327;SDS011;13279;51.300;12.394;2022-08-01T11:03:40;1.77;;;1.10;;
25327;SDS011;13279;51.300;12.394;2022-08-01T11:06:14;0.87;;;0.87;;
25327;SDS011;13279;51.300;12.394;2022-08-01T11:08:50;1.90;;;1.10;;
25327;SDS011;13279;51.300;12.394;2022-08-01T11:11:18;1.30;;;1.20;;
25327;SDS011;13279;51.300;12.394;2022-08-01T11:14:02;1.20;;;1.20;;
25327;SDS011;13279;51.300;12.394;2022-08-01T11:16:33;1.10;;;1.10;;
25327;SDS011;13279;51.300;12.394;2022-08-01T11:19:02;1.40;;;1.30;;
25327;SDS011;13279;51.300;12.394;2022-08-01T11:27:24;4.33;;;1.40;;
25327;SDS011;13279;51.300;12.394;2022-08-01T11:32:52;1.10;;;1.10;;
25327;SDS011;13279;51.300;12.394;2022-08-01T11:35:21;1.30;;;1.20;;
25327;SDS011;13279;51.300;12.394;2022-08-01T11:37:52;0.87;;;0.87;;
25327;SDS011;13279;51.300;12.394;2022-08-01T11:40:24;1.17;;;0.70;;
25327;SDS011;13279;51.300;12.394;2022-08-01T11:45:47;0.60;;;0.60;;
25327;SDS011;13279;51.300;12.394;2022-08-01T11:48:19;1.17;;;0.80;;
25327;SDS011;13279;51.300;12.394;2022-08-01T11:50:47;2.23;;;0.77;;
25327;SDS011;13279;51.300;12.394;2022-08-01T11:53:17;0.70;;;0.70;;
25327;SDS011;13279;51.300;12.394;2022-08-01T11:55:50;0.60;;;0.60;;
25327;SDS011;13279;51.300;12.394;2022-08-01T11:58:21;0.83;;;0.83;;
25327;SDS011;13279;51.300;12.394;2022-08-01T12:00:50;1.10;;;0.73;;
25327;SDS011;13279;51.300;12.394;2022-08-01T12:03:22;1.07;;;0.90;;
25327;SDS011;13279;51.300;12.394;2022-08-01T12:05:53;0.80;;;0.80;;
25327;SDS011;13279;51.300;12.394;2022-08-01T12:08:26;1.70;;;1.00;;
25327;SDS011;13279;51.300;12.394;2022-08-01T12:10:56;3.27;;;1.40;;
25327;SDS011;13279;51.300;12.394;2022-08-01T12:13:24;5.30;;;1.40;;
25327;SDS011;13279;51.300;12.394;2022-08-01T12:15:52;3.20;;;1.60;;
25327;SDS011;13279;51.300;12.394;2022-08-01T12:18:21;1.60;;;1.50;;
25327;SDS011;13279;51.300;12.394;2022-08-01T12:21:01;1.40;;;1.30;;
25327;SDS011;13279;51.300;12.394;2022-08-01T12:23:30;3.00;;;1.43;;
25327;SDS011;13279;51.300;12.394;2022-08-01T12:25:59;1.60;;;1.50;;
25327;SDS011;13279;51.300;12.394;2022-08-01T12:28:29;3.07;;;1.60;;
25327;SDS011;13279;51.300;12.394;2022-08-01T12:30:57;1.50;;;1.40;;
25327;SDS011;13279;51.300;12.394;2022-08-01T12:33:24;2.17;;;1.40;;
25327;SDS011;13279;51.300;12.394;2022-08-01T12:35:51;1.30;;;1.23;;
25327;SDS011;13279;51.300;12.394;2022-08-01T12:38:20;1.80;;;1.27;;
25327;SDS011;13279;51.300;12.394;2022-08-01T12:40:50;1.43;;;1.20;;
25327;SDS011;13279;51.300;12.394;2022-08-01T12:43:20;3.53;;;0.90;;
25327;SDS011;13279;51.300;12.394;2022-08-01T12:45:50;1.30;;;1.30;;
25327;SDS011;13279;51.300;12.394;2022-08-01T12:48:19;1.37;;;1.20;;
25327;SDS011;13279;51.300;12.394;2022-08-01T12:50:47;1.75;;;1.08;;
25327;SDS011;13279;51.300;12.394;2022-08-01T12:53:16;1.63;;;1.00;;
25327;SDS011;13279;51.300;12.394;2022-08-01T12:55:44;2.67;;;0.93;;
25327;SDS011;13279;51.300;12.394;2022-08-01T12:58:13;1.73;;;1.00;;
25327;SDS011;13279;51.300;12.394;2022-08-01T13:00:43;0.90;;;0.90;;
25327;SDS011;13279;51.300;12.394;2022-08-01T13:03:12;2.85;;;0.80;;
25327;SDS011;13279;51.300;12.394;2022-08-01T13:05:41;0.70;;;0.70;;
25327;SDS011;13279;51.300;12.394;2022-08-01T13:08:10;0.75;;;0.75;;
25327;SDS011;13279;51.300;12.394;2022-08-01T13:10:39;0.75;;;0.75;;
25327;SDS011;13279;51.300;12.394;2022-08-01T13:13:07;1.23;;;1.15;;
25327;SDS011;13279;51.300;12.394;2022-08-01T13:15:36;0.80;;;0.80;;
25327;SDS011;13279;51.300;12.394;2022-08-01T13:21:06;0.68;;;0.68;;
25327;SDS011;13279;51.300;12.394;2022-08-01T13:23:36;0.70;;;0.70;;
25327;SDS011;13279;51.300;12.394;2022-08-01T13:26:03;1.50;;;0.88;;
25327;SDS011;13279;51.300;12.394;2022-08-01T13:28:31;1.00;;;0.80;;
25327;SDS011;13279;51.300;12.394;2022-08-01T13:34:48;1.65;;;1.00;;
25327;SDS011;13279;51.300;12.394;2022-08-01T13:37:16;1.10;;;1.10;;
25327;SDS011;13279;51.300;12.394;2022-08-01T13:39:44;1.35;;;1.25;;
25327;SDS011;13279;51.300;12.394;2022-08-01T13:42:14;1.05;;;1.05;;
25327;SDS011;13279;51.300;12.394;2022-08-01T13:44:43;1.00;;;1.00;;
25327;SDS011;13279;51.300;12.394;2022-08-01T13:47:11;1.00;;;1.00;;
25327;SDS011;13279;51.300;12.394;2022-08-01T13:49:39;1.20;;;1.10;;
25327;SDS011;13279;51.300;12.394;2022-08-01T13:52:08;2.67;;;1.00;;
25327;SDS011;13279;51.300;12.394;2022-08-01T13:54:35;0.77;;;0.77;;
25327;SDS011;13279;51.300;12.394;2022-08-01T13:57:03;0.77;;;0.77;;
25327;SDS011;13279;51.300;12.394;2022-08-01T14:03:18;1.38;;;0.65;;
25327;SDS011;13279;51.300;12.394;2022-08-01T14:05:46;3.13;;;0.77;;
25327;SDS011;13279;51.300;12.394;2022-08-01T14:08:15;0.77;;;0.77;;
25327;SDS011;13279;51.300;12.394;2022-08-01T14:10:43;0.82;;;0.70;;
25327;SDS011;13279;51.300;12.394;2022-08-01T14:13:11;2.55;;;0.80;;
25327;SDS011;13279;51.300;12.394;2022-08-01T14:15:39;0.70;;;0.70;;
25327;SDS011;13279;51.300;12.394;2022-08-01T14:18:06;0.80;;;0.80;;
25327;SDS011;13279;51.300;12.394;2022-08-01T14:20:34;0.60;;;0.60;;
25327;SDS011;13279;51.300;12.394;2022-08-01T14:23:02;0.60;;;0.60;;
25327;SDS011;13279;51.300;12.394;2022-08-01T14:25:31;3.17;;;0.70;;
25327;SDS011;13279;51.300;12.394;2022-08-01T14:27:58;0.50;;;0.50;;
25327;SDS011;13279;51.300;12.394;2022-08-01T14:30:26;0.70;;;0.57;;
25327;SDS011;13279;51.300;12.394;2022-08-01T14:32:53;0.70;;;0.70;;
25327;SDS011;13279;51.300;12.394;2022-08-01T14:35:21;0.57;;;0.57;;
25327;SDS011;13279;51.300;12.394;2022-08-01T14:37:49;0.60;;;0.57;;
25327;SDS011;13279;51.300;12.394;2022-08-01T14:40:16;1.42;;;0.70;;
25327;SDS011;13279;51.300;12.394;2022-08-01T14:42:45;0.63;;;0.63;;
25327;SDS011;13279;51.300;12.394;2022-08-01T14:45:12;2.80;;;0.82;;
25327;SDS011;13279;51.300;12.394;2022-08-01T14:47:41;1.45;;;0.85;;
25327;SDS011;13279;51.300;12.394;2022-08-01T14:50:09;0.77;;;0.77;;
25327;SDS011;13279;51.300;12.394;2022-08-01T14:52:38;1.05;;;0.90;;
25327;SDS011;13279;51.300;12.394;2022-08-01T14:55:08;3.92;;;0.80;;
25327;SDS011;13279;51.300;12.394;2022-08-01T14:57:36;0.70;;;0.70;;
25327;SDS011;13279;51.300;12.394;2022-08-01T15:00:07;1.33;;;0.80;;
25327;SDS011;13279;51.300;12.394;2022-08-01T15:02:38;0.93;;;0.80;;
25327;SDS011;13279;51.300;12.394;2022-08-01T15:05:05;0.70;;;0.70;;
25327;SDS011;13279;51.300;12.394;2022-08-01T15:07:34;1.00;;;0.60;;
25327;SDS011;13279;51.300;12.394;2022-08-01T15:10:02;1.33;;;0.70;;
25327;SDS011;13279;51.300;12.394;2022-08-01T15:12:30;0.85;;;0.85;;
25327;SDS011;13279;51.300;12.394;2022-08-01T15:14:58;0.93;;;0.93;;
25327;SDS011;13279;51.300;12.394;2022-08-01T15:17:28;0.93;;;0.93;;
25327;SDS011;13279;51.300;12.394;2022-08-01T15:19:58;0.80;;;0.80;;
25327;SDS011;13279;51.300;12.394;2022-08-01T15:22:27;0.80;;;0.80;;
25327;SDS011;13279;51.300;12.394;2022-08-01T15:24:55;1.23;;;1.23;;
25327;SDS011;13279;51.300;12.394;2022-08-01T15:27:24;2.30;;;1.17;;
25327;SDS011;13279;51.300;12.394;2022-08-01T15:29:52;2.83;;;1.05;;
25327;SDS011;13279;51.300;12.394;2022-08-01T15:32:20;1.27;;;1.17;;
25327;SDS011;13279;51.300;12.394;2022-08-01T15:34:50;4.03;;;1.40;;
25327;SDS011;13279;51.300;12.394;2022-08-01T15:37:18;3.03;;;1.23;;
25327;SDS011;13279;51.300;12.394;2022-08-01T15:39:46;1.30;;;1.27;;
25327;SDS011;13279;51.300;12.394;2022-08-01T15:42:14;1.60;;;1.50;;
25327;SDS011;13279;51.300;12.394;2022-08-01T15:44:42;4.78;;;1.35;;
25327;SDS011;13279;51.300;12.394;2022-08-01T15:47:10;1.70;;;1.60;;
25327;SDS011;13279;51.300;12.394;2022-08-01T15:49:37;1.58;;;1.48;;
25327;SDS011;13279;51.300;12.394;2022-08-01T15:52:08;1.60;;;1.55;;
25327;SDS011;13279;51.300;12.394;2022-08-01T15:54:36;1.50;;;1.50;;
25327;SDS011;13279;51.300;12.394;2022-08-01T15:57:05;3.13;;;1.85;;
25327;SDS011;13279;51.300;12.394;2022-08-01T15:59:34;5.10;;;2.03;;
25327;SDS011;13279;51.300;12.394;2022-08-01T16:02:02;4.65;;;1.80;;
25327;SDS011;13279;51.300;12.394;2022-08-01T16:04:30;3.90;;;2.40;;
25327;SDS011;13279;51.300;12.394;2022-08-01T16:06:58;2.17;;;2.08;;
25327;SDS011;13279;51.300;12.394;2022-08-01T16:09:27;7.18;;;1.83;;
25327;SDS011;13279;51.300;12.394;2022-08-01T16:11:54;1.52;;;1.42;;
25327;SDS011;13279;51.300;12.394;2022-08-01T16:14:40;1.63;;;1.50;;
25327;SDS011;13279;51.300;12.394;2022-08-01T16:17:07;1.98;;;1.60;;
25327;SDS011;13279;51.300;12.394;2022-08-01T16:19:35;3.40;;;1.75;;
25327;SDS011;13279;51.300;12.394;2022-08-01T16:22:02;1.60;;;1.50;;
25327;SDS011;13279;51.300;12.394;2022-08-01T16:24:31;1.40;;;1.30;;
25327;SDS011;13279;51.300;12.394;2022-08-01T16:29:37;1.03;;;1.03;;
25327;SDS011;13279;51.300;12.394;2022-08-01T16:32:05;2.20;;;1.30;;
25327;SDS011;13279;51.300;12.394;2022-08-01T16:34:32;2.87;;;0.90;;
25327;SDS011;13279;51.300;12.394;2022-08-01T16:37:00;3.77;;;1.17;;
25327;SDS011;13279;51.300;12.394;2022-08-01T16:39:27;0.73;;;0.73;;
25327;SDS011;13279;51.300;12.394;2022-08-01T16:41:57;1.03;;;1.00;;
25327;SDS011;13279;51.300;12.394;2022-08-01T16:44:24;0.83;;;0.80;;
25327;SDS011;13279;51.300;12.394;2022-08-01T16:46:52;2.60;;;0.90;;
25327;SDS011;13279;51.300;12.394;2022-08-01T16:49:19;1.13;;;0.87;;
25327;SDS011;13279;51.300;12.394;2022-08-01T16:51:46;2.07;;;0.93;;
25327;SDS011;13279;51.300;12.394;2022-08-01T16:54:14;1.37;;;1.00;;
25327;SDS011;13279;51.300;12.394;2022-08-01T16:56:42;3.37;;;0.90;;
25327;SDS011;13279;51.300;12.394;2022-08-01T16:59:10;1.07;;;0.87;;
25327;SDS011;13279;51.300;12.394;2022-08-01T17:01:38;2.67;;;0.80;;
25327;SDS011;13279;51.300;12.394;2022-08-01T17:04:06;1.37;;;1.07;;
25327;SDS011;13279;51.300;12.394;2022-08-01T17:06:34;3.40;;;0.90;;
25327;SDS011;13279;51.300;12.394;2022-08-01T17:09:01;1.93;;;1.10;;
25327;SDS011;13279;51.300;12.394;2022-08-01T17:11:30;1.10;;;1.03;;
25327;SDS011;13279;51.300;12.394;2022-08-01T17:13:57;1.50;;;1.17;;
25327;SDS011;13279;51.300;12.394;2022-08-01T17:16:26;1.10;;;1.10;;
25327;SDS011;13279;51.300;12.394;2022-08-01T17:18:53;1.43;;;1.13;;
25327;SDS011;13279;51.300;12.394;2022-08-01T17:21:21;1.27;;;1.20;;
25327;SDS011;13279;51.300;12.394;2022-08-01T17:23:48;3.03;;;1.33;;
25327;SDS011;13279;51.300;12.394;2022-08-01T17:26:15;1.00;;;1.00;;
25327;SDS011;13279;51.300;12.394;2022-08-01T17:28:43;6.10;;;0.97;;
25327;SDS011;13279;51.300;12.394;2022-08-01T17:31:11;1.23;;;1.13;;
25327;SDS011;13279;51.300;12.394;2022-08-01T17:33:39;1.43;;;1.10;;
25327;SDS011;13279;51.300;12.394;2022-08-01T17:36:08;1.13;;;1.03;;
25327;SDS011;13279;51.300;12.394;2022-08-01T17:38:36;1.50;;;1.23;;
25327;SDS011;13279;51.300;12.394;2022-08-01T17:41:03;1.53;;;1.03;;
25327;SDS011;13279;51.300;12.394;2022-08-01T17:43:30;2.30;;;1.20;;
25327;SDS011;13279;51.300;12.394;2022-08-01T17:45:58;1.17;;;0.80;;
25327;SDS011;13279;51.300;12.394;2022-08-01T17:48:26;4.20;;;1.03;;
25327;SDS011;13279;51.300;12.394;2022-08-01T17:50:55;1.77;;;0.80;;
25327;SDS011;13279;51.300;12.394;2022-08-01T17:53:22;1.20;;;1.00;;
25327;SDS011;13279;51.300;12.394;2022-08-01T17:55:50;2.00;;;0.70;;
25327;SDS011;13279;51.300;12.394;2022-08-01T17:58:23;1.13;;;0.87;;
25327;SDS011;13279;51.300;12.394;2022-08-01T18:00:50;1.40;;;1.03;;
25327;SDS011;13279;51.300;12.394;2022-08-01T18:03:18;2.80;;;1.00;;
25327;SDS011;13279;51.300;12.394;2022-08-01T18:05:46;1.37;;;0.80;;
25327;SDS011;13279;51.300;12.394;2022-08-01T18:08:14;1.90;;;0.90;;
25327;SDS011;13279;51.300;12.394;2022-08-01T18:10:42;1.80;;;0.90;;
25327;SDS011;13279;51.300;12.394;2022-08-01T18:13:10;2.53;;;0.90;;
25327;SDS011;13279;51.300;12.394;2022-08-01T18:15:40;3.10;;;1.00;;
25327;SDS011;13279;51.300;12.394;2022-08-01T18:18:10;0.80;;;0.80;;
25327;SDS011;13279;51.300;12.394;2022-08-01T18:20:41;2.63;;;0.67;;
25327;SDS011;13279;51.300;12.394;2022-08-01T18:23:09;3.90;;;0.90;;
25327;SDS011;13279;51.300;12.394;2022-08-01T18:25:39;7.37;;;0.93;;
25327;SDS011;13279;51.300;12.394;2022-08-01T18:28:06;2.47;;;0.73;;
25327;SDS011;13279;51.300;12.394;2022-08-01T18:30:34;1.40;;;0.63;;